Time;durP1;ratioP1;P1;durP2;ratioP2;P2;SDS_P1;SDS_P2;PMS_P1;PMS_P2;Temp;Humidity;BMP_temperature;BMP_pressure;BME280_temperature;BME280_humidity;BME280_pressure;Samples;Min_cycle;Max_cycle;Signal;HPM_P1;HPM_P2
2021/01/28 00:05:58;;;;;;;43.22;21.60;;;;;;;2.22;100.00;100151.56;20987034;28;20041;-68
2021/01/28 00:15:59;;;;;;;49.47;22.30;;;;;;;2.28;100.00;100136.78;20995083;28;20045;-69
2021/01/28 00:26:01;;;;;;;42.80;21.42;;;;;;;2.31;100.00;100139.28;20993708;28;20044;-69
2021/01/28 00:36:05;;;;;;;44.15;21.98;;;;;;;2.24;100.00;100109.31;20998451;28;20474;-70
2021/01/28 00:46:06;;;;;;;47.17;23.13;;;;;;;2.34;100.00;100084.13;20990754;28;20048;-70
2021/01/28 00:56:08;;;;;;;47.05;21.55;;;;;;;2.30;100.00;100075.59;20985810;28;20059;-70
2021/01/28 01:06:10;;;;;;;42.33;21.02;;;;;;;2.44;100.00;100064.91;21047475;28;20515;-71
2021/01/28 01:16:13;;;;;;;44.53;20.98;;;;;;;2.48;100.00;100077.72;21001489;28;20491;-71
2021/01/28 01:26:14;;;;;;;36.63;18.67;;;;;;;2.48;100.00;100072.56;20982492;28;20051;-71
2021/01/28 01:36:15;;;;;;;36.30;18.05;;;;;;;2.54;100.00;100056.88;20986638;28;20041;-71
2021/01/28 01:46:16;;;;;;;37.97;18.40;;;;;;;2.61;100.00;100031.72;21008237;28;20673;-71
2021/01/28 01:56:29;;;;;;;32.88;17.30;;;;;;;2.62;100.00;100023.09;20978901;28;20063;-71
2021/01/28 02:06:36;;;;;;;35.90;17.98;;;;;;;2.74;100.00;100009.00;21059379;28;20054;-71
2021/01/28 02:16:53;;;;;;;36.22;17.38;;;;;;;2.66;100.00;99991.13;21055255;28;20055;-71
2021/01/28 02:26:55;;;;;;;36.22;18.17;;;;;;;2.73;100.00;99969.38;21029715;28;20480;-71
2021/01/28 02:36:55;;;;;;;35.33;18.67;;;;;;;2.81;100.00;99961.41;21008262;28;20692;-71
2021/01/28 02:46:56;;;;;;;34.35;17.35;;;;;;;2.79;100.00;99943.38;21060510;28;20408;-71
2021/01/28 02:56:57;;;;;;;26.27;13.45;;;;;;;2.81;100.00;99920.91;20989997;28;20135;-71
2021/01/28 03:06:59;;;;;;;23.45;11.02;;;;;;;2.97;100.00;99910.94;20975680;28;20131;-71
2021/01/28 03:17:00;;;;;;;17.73;9.70;;;;;;;2.99;100.00;99891.06;20975445;28;20054;-71
2021/01/28 03:27:02;;;;;;;15.88;9.57;;;;;;;3.06;100.00;99858.94;20980080;28;20447;-71
2021/01/28 03:37:03;;;;;;;18.38;9.60;;;;;;;3.13;100.00;99838.91;20972241;28;20048;-71
2021/01/28 03:47:04;;;;;;;18.30;10.95;;;;;;;3.13;100.00;99824.25;20994160;28;20488;-71
2021/01/28 03:57:06;;;;;;;17.58;10.60;;;;;;;3.15;100.00;99794.00;20993434;28;20454;-71
2021/01/28 04:07:07;;;;;;;17.33;11.05;;;;;;;3.22;100.00;99761.03;20985858;28;20037;-69
2021/01/28 04:17:08;;;;;;;19.27;11.48;;;;;;;3.25;100.00;99743.66;20987335;28;20939;-69
2021/01/28 04:27:09;;;;;;;18.20;10.95;;;;;;;3.20;100.00;99732.63;20997143;28;20052;-70
2021/01/28 04:37:10;;;;;;;22.60;12.68;;;;;;;3.30;100.00;99717.66;20996558;28;20048;-69
2021/01/28 04:47:18;;;;;;;23.00;12.20;;;;;;;3.32;100.00;99670.13;20986189;28;20099;-69
2021/01/28 04:57:19;;;;;;;19.90;11.27;;;;;;;3.35;100.00;99649.31;20988875;28;20045;-70
2021/01/28 05:07:26;;;;;;;19.35;11.60;;;;;;;3.44;100.00;99638.66;21051153;28;20131;-69
2021/01/28 05:17:29;;;;;;;21.85;11.70;;;;;;;3.56;100.00;99605.44;21015443;28;20492;-69
2021/01/28 05:27:34;;;;;;;18.08;10.73;;;;;;;3.55;100.00;99588.25;20985836;28;20080;-69
2021/01/28 05:37:35;;;;;;;19.60;11.38;;;;;;;3.66;100.00;99560.19;20981304;28;20076;-69
2021/01/28 05:47:36;;;;;;;20.25;11.77;;;;;;;3.63;100.00;99534.44;21029381;28;20126;-69
2021/01/28 05:57:50;;;;;;;20.27;12.13;;;;;;;3.72;100.00;99518.56;20978570;28;20055;-69
2021/01/28 06:08:07;;;;;;;21.38;12.35;;;;;;;3.78;100.00;99495.84;20977800;28;20036;-69
2021/01/28 06:18:45;;;;;;;24.35;12.77;;;;;;;3.91;100.00;99467.75;20978455;28;20090;-68
2021/01/28 06:29:02;;;;;;;20.77;11.32;;;;;;;3.87;100.00;99450.63;20983643;28;20044;-69
2021/01/28 06:39:19;;;;;;;21.75;11.68;;;;;;;3.99;100.00;99436.34;20976872;28;20510;-69
2021/01/28 06:49:27;;;;;;;22.15;12.10;;;;;;;3.96;100.00;99434.72;20977325;28;20620;-69
2021/01/28 06:59:51;;;;;;;21.60;12.65;;;;;;;4.04;100.00;99422.28;21052995;28;20051;-70
2021/01/28 07:10:01;;;;;;;20.60;11.05;;;;;;;4.12;100.00;99396.88;20975532;28;20074;-70
2021/01/28 07:20:06;;;;;;;22.48;13.60;;;;;;;4.26;100.00;99384.19;21001065;28;20450;-70
2021/01/28 07:30:28;;;;;;;19.47;10.60;;;;;;;4.36;100.00;99365.63;20996891;28;20045;-70
2021/01/28 07:41:06;;;;;;;17.33;9.52;;;;;;;4.37;100.00;99336.25;21019709;28;20044;-70
2021/01/28 07:51:34;;;;;;;17.92;10.23;;;;;;;4.48;100.00;99305.47;21075965;28;20044;-70
2021/01/28 08:01:37;;;;;;;14.30;8.68;;;;;;;4.57;100.00;99274.78;20995850;28;20434;-70
2021/01/28 08:11:38;;;;;;;14.05;8.30;;;;;;;4.68;100.00;99253.53;21048696;28;20055;-70
2021/01/28 08:21:39;;;;;;;12.40;6.75;;;;;;;4.83;100.00;99221.66;20992969;28;20488;-69
2021/01/28 08:31:44;;;;;;;11.32;6.40;;;;;;;5.13;100.00;99209.75;20994664;28;20051;-70
2021/01/28 08:41:58;;;;;;;7.90;4.47;;;;;;;5.21;100.00;99165.28;21002267;28;20044;-70
2021/01/28 08:52:04;;;;;;;7.90;4.13;;;;;;;5.44;100.00;99156.28;21021457;28;20098;-69
2021/01/28 09:02:05;;;;;;;7.15;4.05;;;;;;;5.63;100.00;99141.41;21000080;28;20053;-70
2021/01/28 09:12:39;;;;;;;6.90;3.22;;;;;;;5.72;100.00;99125.34;20991440;28;20083;-69
2021/01/28 09:22:41;;;;;;;6.72;3.63;;;;;;;5.70;100.00;99123.72;20978280;28;20048;-70
2021/01/28 09:32:41;;;;;;;7.35;3.45;;;;;;;5.87;100.00;99134.06;21001428;28;20040;-71
2021/01/28 09:42:43;;;;;;;6.43;3.58;;;;;;;5.95;100.00;99137.91;21026700;28;20055;-71
2021/01/28 09:52:47;;;;;;;5.70;3.03;;;;;;;6.00;100.00;99125.50;21000877;28;20044;-68
2021/01/28 10:03:02;;;;;;;5.90;3.42;;;;;;;6.11;100.00;99142.25;20986303;28;20052;-69
2021/01/28 10:13:09;;;;;;;9.52;3.83;;;;;;;6.15;100.00;99133.34;21020495;28;20056;-69
2021/01/28 10:23:10;;;;;;;6.38;3.72;;;;;;;6.30;100.00;99122.91;20994930;28;20044;-68
2021/01/28 10:33:12;;;;;;;7.35;4.63;;;;;;;6.35;100.00;99104.47;21014579;28;20044;-69
2021/01/28 10:43:13;;;;;;;10.65;5.90;;;;;;;6.47;100.00;99071.72;21037076;28;20043;-69
2021/01/28 10:53:14;;;;;;;10.15;6.20;;;;;;;6.56;100.00;98982.81;20988850;28;20041;-69
2021/01/28 11:03:15;;;;;;;6.65;3.92;;;;;;;6.87;100.00;98982.59;20988785;28;20041;-70
2021/01/28 11:13:16;;;;;;;6.82;3.30;;;;;;;7.21;100.00;98983.97;20987460;28;20047;-69
2021/01/28 11:23:17;;;;;;;7.30;3.72;;;;;;;7.47;100.00;98983.13;20982770;28;20041;-69
2021/01/28 11:33:18;;;;;;;9.40;4.50;;;;;;;7.38;100.00;98988.91;21065669;28;20055;-68
2021/01/28 11:43:20;;;;;;;6.75;2.75;;;;;;;7.43;100.00;98966.03;20991028;28;20036;-69
2021/01/28 11:53:22;;;;;;;4.80;2.65;;;;;;;7.59;100.00;98956.28;21039109;28;20075;-68
2021/01/28 12:03:23;;;;;;;7.30;2.80;;;;;;;7.72;100.00;98951.94;21041198;28;20071;-68
2021/01/28 12:13:24;;;;;;;5.28;2.55;;;;;;;7.87;100.00;98923.25;21008214;28;20156;-68
2021/01/28 12:23:25;;;;;;;5.32;3.10;;;;;;;7.93;100.00;98922.81;20994651;28;20092;-69
2021/01/28 12:33:26;;;;;;;7.47;3.40;;;;;;;8.30;100.00;98906.38;21016583;28;20553;-68
2021/01/28 12:43:27;;;;;;;5.70;3.20;;;;;;;8.45;100.00;98904.50;20996804;28;20138;-68
2021/01/28 12:53:28;;;;;;;6.05;3.30;;;;;;;8.55;100.00;98890.72;21058360;28;20052;-68
2021/01/28 13:03:30;;;;;;;6.45;3.42;;;;;;;8.92;100.00;98893.31;20990871;28;20067;-69
2021/01/28 13:13:31;;;;;;;3.58;2.10;;;;;;;9.13;100.00;98893.56;20991709;28;20553;-68
2021/01/28 13:23:31;;;;;;;4.55;2.20;;;;;;;9.29;100.00;98897.56;21013926;28;20411;-68
2021/01/28 13:33:33;;;;;;;4.13;2.00;;;;;;;9.39;100.00;98919.44;20988416;28;20063;-68
2021/01/28 13:43:34;;;;;;;3.35;1.40;;;;;;;9.57;100.00;98919.03;20992301;28;20053;-68
2021/01/28 13:53:35;;;;;;;3.00;1.30;;;;;;;9.77;100.00;98914.00;21000954;28;20043;-68
2021/01/28 14:03:36;;;;;;;3.70;1.85;;;;;;;9.98;100.00;98926.41;20994949;28;20048;-68
2021/01/28 14:13:37;;;;;;;4.88;2.15;;;;;;;10.08;100.00;98928.22;20987481;28;20045;-68
2021/01/28 14:23:38;;;;;;;3.33;1.52;;;;;;;10.22;100.00;98916.72;20985374;28;20183;-68
2021/01/28 14:33:39;;;;;;;5.18;1.70;;;;;;;10.11;100.00;98900.97;21027862;28;20433;-68
2021/01/28 14:43:40;;;;;;;1.65;0.85;;;;;;;10.07;100.00;98921.31;21036043;28;20040;-68
2021/01/28 14:53:40;;;;;;;1.65;0.80;;;;;;;10.55;100.00;98934.22;21064750;28;20044;-68
2021/01/28 15:03:41;;;;;;;2.97;1.10;;;;;;;10.80;100.00;98952.31;21019073;28;20047;-68
2021/01/28 15:13:42;;;;;;;2.80;0.40;;;;;;;10.88;100.00;98944.66;21035007;28;20040;-68
2021/01/28 15:23:44;;;;;;;1.67;0.68;;;;;;;10.90;100.00;98952.41;20983480;28;20056;-68
2021/01/28 15:33:46;;;;;;;1.27;0.50;;;;;;;11.04;100.00;98960.84;20983082;28;20044;-68
2021/01/28 15:43:47;;;;;;;2.15;0.60;;;;;;;10.90;100.00;98974.19;21028055;28;20040;-68
2021/01/28 15:53:48;;;;;;;1.70;0.55;;;;;;;10.88;100.00;98998.81;21003712;28;20040;-68
2021/01/28 16:03:49;;;;;;;1.95;0.60;;;;;;;10.72;100.00;99007.00;20995785;28;20053;-68
2021/01/28 16:13:50;;;;;;;1.27;0.45;;;;;;;10.63;100.00;99023.41;21004917;28;20036;-68
2021/01/28 16:23:51;;;;;;;4.03;1.15;;;;;;;10.65;100.00;99051.16;20997090;28;20480;-68
2021/01/28 16:33:52;;;;;;;2.65;1.23;;;;;;;10.37;100.00;99056.78;20997491;28;20052;-68
2021/01/28 16:43:53;;;;;;;3.72;1.33;;;;;;;10.26;100.00;99078.50;21001566;28;20051;-69
2021/01/28 16:53:54;;;;;;;2.50;0.90;;;;;;;10.36;100.00;99081.28;21071093;28;20036;-68
2021/01/28 17:03:55;;;;;;;4.53;1.83;;;;;;;10.32;100.00;99085.06;21079577;28;20040;-69
2021/01/28 17:13:56;;;;;;;3.22;0.95;;;;;;;10.29;100.00;99103.59;21038132;28;20037;-68
2021/01/28 17:23:58;;;;;;;4.38;1.15;;;;;;;10.49;100.00;99136.13;21012956;28;20045;-68
2021/01/28 17:33:58;;;;;;;2.05;0.90;;;;;;;10.60;100.00;99152.72;20991552;28;20053;-69
2021/01/28 17:44:00;;;;;;;5.15;2.38;;;;;;;10.49;100.00;99159.69;20983995;28;20506;-70
2021/01/28 17:54:01;;;;;;;3.90;1.17;;;;;;;10.53;100.00;99184.66;20986271;28;20048;-70
2021/01/28 18:04:06;;;;;;;2.90;1.10;;;;;;;10.52;100.00;99209.16;20986287;28;20415;-70
2021/01/28 18:14:09;;;;;;;4.63;1.90;;;;;;;10.54;100.00;99191.56;21002179;28;20044;-69
2021/01/28 18:24:13;;;;;;;4.55;1.63;;;;;;;10.64;100.00;99187.31;20992904;28;20045;-70
2021/01/28 18:34:14;;;;;;;2.80;1.20;;;;;;;10.49;100.00;99215.47;21006817;28;20049;-69
2021/01/28 18:44:17;;;;;;;5.10;1.63;;;;;;;10.18;100.00;99208.97;20993555;28;20052;-68
2021/01/28 18:54:18;;;;;;;3.25;1.10;;;;;;;10.19;100.00;99228.97;20995564;28;20040;-70
2021/01/28 19:04:20;;;;;;;4.68;0.90;;;;;;;10.31;100.00;99218.56;21001420;28;20128;-69
2021/01/28 19:14:23;;;;;;;2.03;0.90;;;;;;;10.33;100.00;99237.59;21011595;28;20789;-69
2021/01/28 19:24:24;;;;;;;3.35;1.23;;;;;;;10.18;100.00;99248.22;21008983;28;20041;-69
2021/01/28 19:34:25;;;;;;;4.75;1.20;;;;;;;10.11;100.00;99252.16;20993042;28;20435;-69
2021/01/28 19:44:26;;;;;;;2.25;0.90;;;;;;;10.07;100.00;99253.31;21021112;28;20550;-69
2021/01/28 19:54:27;;;;;;;2.15;1.05;;;;;;;10.02;100.00;99258.03;21020962;28;20045;-70
2021/01/28 20:04:29;;;;;;;4.68;1.27;;;;;;;9.94;100.00;99262.97;21005540;28;20063;-69
2021/01/28 20:14:29;;;;;;;5.63;2.10;;;;;;;10.02;100.00;99268.50;21000184;28;20083;-70
2021/01/28 20:24:30;;;;;;;5.35;2.28;;;;;;;10.04;100.00;99274.47;21028223;28;20045;-70
2021/01/28 20:34:32;;;;;;;5.05;1.60;;;;;;;10.03;100.00;99283.25;21008480;28;20076;-69
2021/01/28 20:44:32;;;;;;;3.78;1.35;;;;;;;9.83;100.00;99276.78;20988159;28;20102;-69
2021/01/28 20:54:34;;;;;;;6.40;1.67;;;;;;;9.67;100.00;99288.38;21013491;28;20044;-69
2021/01/28 21:04:35;;;;;;;6.40;1.70;;;;;;;9.60;100.00;99271.47;21016625;28;20127;-69
2021/01/28 21:14:36;;;;;;;4.18;1.77;;;;;;;9.52;100.00;99279.81;21000718;28;20040;-70
2021/01/28 21:24:41;;;;;;;4.50;1.80;;;;;;;9.51;100.00;99266.84;20998736;28;20155;-70
2021/01/28 21:34:42;;;;;;;6.25;2.95;;;;;;;9.36;100.00;99263.50;21004569;28;20098;-69
2021/01/28 21:44:43;;;;;;;8.48;3.30;;;;;;;9.40;100.00;99268.41;21020571;28;20128;-69
2021/01/28 21:54:46;;;;;;;10.52;4.07;;;;;;;9.42;100.00;99263.94;20993258;28;20099;-69
2021/01/28 22:04:47;;;;;;;9.55;3.97;;;;;;;9.51;100.00;99259.03;21009449;28;20055;-69
2021/01/28 22:14:50;;;;;;;10.10;5.05;;;;;;;9.32;100.00;99247.22;21021787;28;20480;-69
2021/01/28 22:24:51;;;;;;;11.50;3.78;;;;;;;9.32;100.00;99242.00;21014640;28;20047;-70
2021/01/28 22:34:52;;;;;;;6.05;2.70;;;;;;;9.16;100.00;99241.34;21018498;28;20052;-70
2021/01/28 22:44:53;;;;;;;7.88;2.38;;;;;;;9.23;100.00;99232.19;21011093;28;20381;-70
2021/01/28 22:54:54;;;;;;;5.47;2.55;;;;;;;9.31;100.00;99216.81;20991759;28;20408;-70
2021/01/28 23:04:55;;;;;;;5.97;1.50;;;;;;;9.33;100.00;99216.72;20982586;28;20033;-69
2021/01/28 23:14:56;;;;;;;2.60;0.80;;;;;;;9.17;100.00;99206.47;21008388;28;20037;-69
2021/01/28 23:24:57;;;;;;;4.72;1.90;;;;;;;8.97;100.00;99183.50;21000305;28;20086;-70
2021/01/28 23:35:08;;;;;;;6.93;2.40;;;;;;;8.84;100.00;99177.41;21019821;28;20131;-70
2021/01/28 23:45:12;;;;;;;5.40;1.77;;;;;;;8.91;100.00;99166.47;21024942;23;20057;-73
2021/01/28 23:55:14;;;;;;;4.70;1.42;;;;;;;9.04;100.00;99132.53;20938962;28;20067;-73
